Time;durP1;ratioP1;P1;durP2;ratioP2;P2;SDS_P1;SDS_P2;PMS_P1;PMS_P2;Temp;Humidity;BMP_temperature;BMP_pressure;BME280_temperature;BME280_humidity;BME280_pressure;Samples;Min_cycle;Max_cycle;Signal;HPM_P1;HPM_P2
2021/03/27 00:01:13;;;;;;;16.27;8.10;;;10.30;74.10;;;;;;5080933;28;20021;-74
2021/03/27 00:04:00;;;;;;;19.23;9.50;;;10.20;76.70;;;;;;5098818;28;20008;-75
2021/03/27 00:06:40;;;;;;;12.18;7.65;;;9.80;78.70;;;;;;5078787;28;20055;-74
2021/03/27 00:09:24;;;;;;;13.98;7.82;;;9.80;79.10;;;;;;5075463;28;20024;-74
2021/03/27 00:11:58;;;;;;;10.93;7.03;;;9.60;80.40;;;;;;5074742;28;20024;-74
2021/03/27 00:14:40;;;;;;;10.20;5.43;;;9.50;80.70;;;;;;5074735;28;20074;-74
2021/03/27 00:17:20;;;;;;;8.75;5.38;;;9.40;80.50;;;;;;5074769;28;20107;-74
2021/03/27 00:19:55;;;;;;;7.25;4.10;;;9.40;81.20;;;;;;5074417;28;20032;-75
2021/03/27 00:22:27;;;;;;;;;;;9.30;80.40;;;;;;5074496;28;20020;-74
2021/03/27 00:25:15;;;;;;;4.75;3.55;;;9.40;80.70;;;;;;5074491;28;19912;-75
2021/03/27 00:28:13;;;;;;;7.97;3.85;;;9.40;80.20;;;;;;5074035;28;20052;-75
2021/03/27 00:30:48;;;;;;;5.70;3.50;;;9.40;80.70;;;;;;5060566;28;20090;-75
2021/03/27 00:33:15;;;;;;;7.47;3.35;;;9.60;80.90;;;;;;5074426;28;20029;-75
2021/03/27 00:35:47;;;;;;;5.28;3.50;;;9.60;79.80;;;;;;5074116;28;20056;-76
2021/03/27 00:38:19;;;;;;;4.68;3.33;;;9.70;79.10;;;;;;5074259;28;20098;-75
2021/03/27 00:40:49;;;;;;;4.88;3.38;;;9.80;79.50;;;;;;5073963;28;20086;-74
2021/03/27 00:43:22;;;;;;;7.70;3.65;;;9.90;79.00;;;;;;5073906;28;20086;-75
2021/03/27 00:45:53;;;;;;;7.13;4.30;;;10.00;79.10;;;;;;5073965;28;20058;-75
2021/03/27 00:48:31;;;;;;;7.82;4.50;;;10.00;79.20;;;;;;5057570;28;20039;-75
2021/03/27 00:51:01;;;;;;;5.93;4.05;;;10.00;79.50;;;;;;5074156;28;20035;-74
2021/03/27 00:53:42;;;;;;;5.38;3.83;;;10.00;79.80;;;;;;5073831;28;20069;-74
2021/03/27 00:56:26;;;;;;;6.15;4.38;;;10.00;79.70;;;;;;5074027;28;20035;-75
2021/03/27 00:59:00;;;;;;;5.38;4.07;;;10.00;79.30;;;;;;5073833;28;20074;-75
2021/03/27 01:01:29;;;;;;;8.55;4.95;;;10.00;80.00;;;;;;5073755;28;20145;-75
2021/03/27 01:03:59;;;;;;;7.60;5.50;;;10.00;78.10;;;;;;5073911;28;20051;-75
2021/03/27 01:06:43;;;;;;;7.22;5.00;;;9.80;77.30;;;;;;5074035;28;20082;-75
2021/03/27 01:09:11;;;;;;;6.68;4.53;;;9.70;77.10;;;;;;5073879;28;20387;-75
2021/03/27 01:11:42;;;;;;;7.82;4.72;;;9.60;76.10;;;;;;5076154;28;20028;-75
2021/03/27 01:14:15;;;;;;;7.90;5.20;;;9.50;76.70;;;;;;5078006;28;20033;-75
2021/03/27 01:16:48;;;;;;;7.90;5.30;;;9.50;77.40;;;;;;5076703;28;20059;-75
2021/03/27 01:19:23;;;;;;;7.43;5.07;;;9.50;78.70;;;;;;5074605;28;20123;-75
2021/03/27 01:21:52;;;;;;;8.65;5.13;;;9.40;78.70;;;;;;5056989;28;20048;-75
2021/03/27 01:24:24;;;;;;;8.75;4.95;;;9.40;78.90;;;;;;5073296;28;20119;-77
2021/03/27 01:27:00;;;;;;;7.15;4.88;;;9.40;78.90;;;;;;5073538;28;20048;-73
2021/03/27 01:29:34;;;;;;;5.05;4.03;;;9.50;78.20;;;;;;5073204;28;20059;-74
2021/03/27 01:32:23;;;;;;;8.15;4.43;;;9.50;78.30;;;;;;5073091;28;20067;-74
2021/03/27 01:35:32;;;;;;;4.15;3.30;;;9.50;77.80;;;;;;5073276;28;20016;-75
2021/03/27 01:38:40;;;;;;;5.43;3.58;;;9.50;77.40;;;;;;5054102;28;20080;-75
2021/03/27 01:41:35;;;;;;;4.53;3.17;;;9.50;77.50;;;;;;5067089;28;20040;-74
2021/03/27 01:44:38;;;;;;;4.32;2.63;;;9.50;78.20;;;;;;5072613;28;20130;-74
2021/03/27 01:47:19;;;;;;;4.15;2.90;;;9.50;78.00;;;;;;5072432;28;20027;-76
2021/03/27 01:50:06;;;;;;;1.90;1.70;;;9.50;77.80;;;;;;5072627;28;20440;-76
2021/03/27 01:52:46;;;;;;;2.50;2.00;;;9.50;76.70;;;;;;5072569;28;20025;-76
2021/03/27 01:55:27;;;;;;;4.22;2.08;;;9.50;76.20;;;;;;5072485;28;20481;-76
2021/03/27 01:58:01;;;;;;;4.10;2.17;;;9.50;76.50;;;;;;5072560;28;20465;-76
2021/03/27 02:00:37;;;;;;;2.33;1.73;;;9.50;76.80;;;;;;5072347;28;20036;-76
2021/03/27 02:03:14;;;;;;;2.75;1.73;;;9.50;76.20;;;;;;5073421;28;20110;-76
2021/03/27 02:06:03;;;;;;;2.35;1.67;;;9.50;76.20;;;;;;5072215;28;20392;-76
2021/03/27 02:08:51;;;;;;;1.55;1.45;;;9.50;77.00;;;;;;5072083;28;20017;-77
2021/03/27 02:11:44;;;;;;;2.80;1.67;;;9.50;77.50;;;;;;5071967;28;20469;-76
2021/03/27 02:14:39;;;;;;;6.68;2.50;;;9.40;77.70;;;;;;5072191;28;20510;-74
2021/03/27 02:17:23;;;;;;;3.78;2.13;;;9.40;78.40;;;;;;5063365;28;20033;-75
2021/03/27 02:20:20;;;;;;;3.15;2.58;;;9.40;79.30;;;;;;5071308;28;20039;-76
2021/03/27 02:22:58;;;;;;;3.95;2.38;;;9.30;80.50;;;;;;5072047;28;20517;-73
2021/03/27 02:25:46;;;;;;;4.97;2.67;;;9.20;81.30;;;;;;5071846;28;20033;-75
2021/03/27 02:28:58;;;;;;;4.43;3.20;;;9.20;81.50;;;;;;5072023;28;20149;-74
2021/03/27 02:31:40;;;;;;;3.88;2.67;;;9.10;83.00;;;;;;5073011;28;20032;-77
2021/03/27 02:34:22;;;;;;;4.57;2.83;;;9.00;83.40;;;;;;5071804;28;20024;-77
2021/03/27 02:37:04;;;;;;;3.90;2.78;;;9.10;83.50;;;;;;5071928;28;20036;-76
2021/03/27 02:39:44;;;;;;;2.58;2.05;;;9.00;83.60;;;;;;5073068;28;20029;-77
2021/03/27 02:42:37;;;;;;;2.78;1.92;;;9.10;83.20;;;;;;5078414;28;20534;-77
2021/03/27 02:45:12;;;;;;;2.97;2.35;;;9.10;82.10;;;;;;5079641;28;20430;-77
2021/03/27 02:47:41;;;;;;;3.43;2.13;;;9.10;82.20;;;;;;5071890;28;20028;-76
2021/03/27 02:50:35;;;;;;;1.88;1.77;;;9.10;82.00;;;;;;5071572;28;20032;-77
2021/03/27 02:53:06;;;;;;;2.78;1.83;;;9.10;82.10;;;;;;5071911;28;20051;-77
2021/03/27 02:55:45;;;;;;;2.63;1.83;;;9.00;81.50;;;;;;5072602;28;20024;-76
2021/03/27 02:58:31;;;;;;;3.38;1.80;;;9.00;82.30;;;;;;5095303;28;20063;-76
2021/03/27 03:01:04;;;;;;;2.53;2.00;;;9.00;82.00;;;;;;5075653;28;20048;-76
2021/03/27 03:03:55;;;;;;;1.90;1.65;;;9.00;82.60;;;;;;5073225;28;20020;-77
2021/03/27 03:06:47;;;;;;;1.92;1.58;;;9.00;82.10;;;;;;5071083;28;20120;-76
2021/03/27 03:09:16;;;;;;;1.90;1.63;;;9.00;82.10;;;;;;5071043;28;20024;-76
2021/03/27 03:12:01;;;;;;;2.05;1.60;;;9.00;82.20;;;;;;5071094;28;20052;-76
2021/03/27 03:14:32;;;;;;;3.45;1.80;;;8.90;82.90;;;;;;5070990;28;20029;-76
2021/03/27 03:17:12;;;;;;;2.65;1.63;;;8.90;82.00;;;;;;5070946;28;20033;-76
2021/03/27 03:19:48;;;;;;;2.70;1.60;;;8.90;81.60;;;;;;5070695;28;20137;-75
2021/03/27 03:22:18;;;;;;;1.50;1.40;;;8.80;82.20;;;;;;5070887;28;20469;-76
2021/03/27 03:24:57;;;;;;;1.60;1.30;;;8.80;82.80;;;;;;5071149;28;20038;-76
2021/03/27 03:27:54;;;;;;;3.22;1.58;;;8.80;82.40;;;;;;5070994;28;20048;-76
2021/03/27 03:30:25;;;;;;;2.08;1.10;;;8.80;80.80;;;;;;5072235;28;20036;-76
2021/03/27 03:33:32;;;;;;;1.58;1.10;;;8.80;80.40;;;;;;5072500;28;20103;-76
2021/03/27 03:36:24;;;;;;;1.73;1.08;;;8.80;79.70;;;;;;5070852;28;20083;-76
2021/03/27 03:39:04;;;;;;;1.95;0.98;;;8.80;79.10;;;;;;5071135;28;20075;-75
2021/03/27 03:42:03;;;;;;;1.15;0.82;;;8.80;78.60;;;;;;5070857;28;20431;-76
2021/03/27 03:44:55;;;;;;;1.52;1.15;;;8.80;79.40;;;;;;5070917;28;20392;-73
2021/03/27 03:47:52;;;;;;;0.95;0.93;;;8.70;80.40;;;;;;5072115;28;20025;-76
2021/03/27 03:50:28;;;;;;;;;;;8.60;80.50;;;;;;5071299;28;20037;-76
2021/03/27 03:53:21;;;;;;;1.10;1.00;;;8.60;80.60;;;;;;5070980;28;20010;-76
2021/03/27 03:56:13;;;;;;;1.20;1.10;;;8.60;79.40;;;;;;5070721;28;20087;-76
2021/03/27 03:58:38;;;;;;;1.92;1.30;;;8.60;78.90;;;;;;5070387;28;20029;-75
2021/03/27 04:01:16;;;;;;;1.70;1.40;;;8.60;79.10;;;;;;5071851;28;20396;-75
2021/03/27 04:04:08;;;;;;;2.10;1.80;;;8.60;80.00;;;;;;5070846;28;20029;-76
2021/03/27 04:06:38;;;;;;;3.10;1.63;;;8.70;79.00;;;;;;5064440;28;20115;-76
2021/03/27 04:09:27;;;;;;;2.85;1.80;;;8.70;78.60;;;;;;5070578;28;20025;-76
2021/03/27 04:12:08;;;;;;;3.10;1.83;;;8.70;76.90;;;;;;5070754;28;20472;-76
2021/03/27 04:14:45;;;;;;;2.38;1.80;;;8.80;75.90;;;;;;5070398;28;20527;-76
2021/03/27 04:17:34;;;;;;;2.00;1.60;;;8.90;76.30;;;;;;5070605;28;20048;-76
2021/03/27 04:20:21;;;;;;;0.80;0.70;;;8.90;76.20;;;;;;5071665;28;20109;-76
2021/03/27 04:23:20;;;;;;;1.90;0.70;;;8.40;76.80;;;;;;5070642;28;20374;-76
2021/03/27 04:26:21;;;;;;;1.33;0.40;;;8.00;79.60;;;;;;5072578;28;20065;-77
2021/03/27 04:28:52;;;;;;;0.75;0.43;;;7.80;81.10;;;;;;5073818;28;20032;-76
2021/03/27 04:32:02;;;;;;;1.33;0.65;;;7.60;82.00;;;;;;5073687;28;20411;-76
2021/03/27 04:34:39;;;;;;;0.90;0.40;;;7.40;83.10;;;;;;5073595;28;20039;-77
2021/03/27 04:37:19;;;;;;;0.70;0.40;;;7.20;83.60;;;;;;5073473;28;20030;-76
2021/03/27 04:39:51;;;;;;;0.88;0.52;;;7.10;84.50;;;;;;5073438;28;20422;-76
2021/03/27 04:42:38;;;;;;;0.65;0.60;;;7.00;85.40;;;;;;5074857;28;20024;-76
2021/03/27 04:45:16;;;;;;;1.85;0.60;;;6.80;86.00;;;;;;5095951;28;20035;-76
2021/03/27 04:47:54;;;;;;;2.67;0.57;;;6.60;82.00;;;;;;5077943;28;20047;-76
2021/03/27 04:50:33;;;;;;;0.90;0.73;;;6.40;80.70;;;;;;5062199;28;20120;-76
2021/03/27 04:53:15;;;;;;;2.17;0.90;;;6.30;81.30;;;;;;5077736;28;20031;-77
2021/03/27 04:56:05;;;;;;;0.75;0.63;;;6.10;82.80;;;;;;5077998;28;20140;-76
2021/03/27 04:58:46;;;;;;;1.90;1.15;;;6.10;83.00;;;;;;5076940;28;20119;-76
2021/03/27 05:01:47;;;;;;;3.63;0.73;;;6.20;83.30;;;;;;5077098;28;20038;-77
2021/03/27 05:04:36;;;;;;;1.65;0.80;;;6.20;82.80;;;;;;5077635;28;20024;-76
2021/03/27 05:07:09;;;;;;;2.28;0.98;;;6.20;82.60;;;;;;5071747;28;20028;-76
2021/03/27 05:09:47;;;;;;;2.20;0.73;;;6.20;82.20;;;;;;5077493;28;20024;-76
2021/03/27 05:12:32;;;;;;;1.05;0.52;;;6.10;82.10;;;;;;5073391;28;20476;-76
2021/03/27 05:15:17;;;;;;;1.98;0.63;;;6.20;81.80;;;;;;5095272;28;20106;-76
2021/03/27 05:17:43;;;;;;;1.55;0.80;;;6.30;82.00;;;;;;5077130;28;20119;-76
2021/03/27 05:20:29;;;;;;;2.72;1.90;;;6.30;81.70;;;;;;5095363;28;20111;-76
2021/03/27 05:23:26;;;;;;;3.30;1.33;;;6.20;81.80;;;;;;5077371;28;20373;-76
2021/03/27 05:26:27;;;;;;;3.03;1.23;;;6.30;81.50;;;;;;5077266;28;20042;-77
2021/03/27 05:29:23;;;;;;;2.63;0.70;;;6.30;81.50;;;;;;5077164;28;20062;-77
2021/03/27 05:32:26;;;;;;;1.75;0.80;;;6.40;81.10;;;;;;5077310;28;20024;-77
2021/03/27 05:34:55;;;;;;;4.53;0.93;;;6.40;80.30;;;;;;5095108;28;20400;-77
2021/03/27 05:37:55;;;;;;;3.58;1.10;;;6.40;80.20;;;;;;5076748;28;20027;-75
2021/03/27 05:40:48;;;;;;;0.70;0.57;;;6.40;80.00;;;;;;5095057;28;20036;-75
2021/03/27 05:43:48;;;;;;;4.35;1.98;;;6.40;79.30;;;;;;5076837;28;20024;-76
2021/03/27 05:46:47;;;;;;;1.95;1.00;;;6.30;79.90;;;;;;5076718;28;20024;-76
2021/03/27 05:49:35;;;;;;;2.63;0.90;;;6.30;79.40;;;;;;5094666;28;20077;-76
2021/03/27 05:52:38;;;;;;;3.83;1.95;;;6.20;78.20;;;;;;5095057;28;20099;-76
2021/03/27 05:55:28;;;;;;;0.85;0.30;;;6.20;76.90;;;;;;5075542;28;20020;-75
2021/03/27 05:58:23;;;;;;;2.33;0.30;;;6.30;76.50;;;;;;5076778;28;20469;-75
2021/03/27 06:01:07;;;;;;;0.22;0.20;;;6.30;76.50;;;;;;5081617;28;20043;-75
2021/03/27 06:04:05;;;;;;;0.45;0.30;;;6.20;76.40;;;;;;5079352;28;20422;-75
2021/03/27 06:07:21;;;;;;;1.33;0.30;;;6.30;76.40;;;;;;5076155;28;20031;-75
2021/03/27 06:10:10;;;;;;;1.38;0.50;;;6.30;76.40;;;;;;5093840;28;20039;-75
2021/03/27 06:12:42;;;;;;;1.75;0.40;;;6.20;76.30;;;;;;5056926;28;20020;-75
2021/03/27 06:15:54;;;;;;;1.65;0.40;;;6.20;76.60;;;;;;5076057;28;20073;-75
2021/03/27 06:18:54;;;;;;;1.65;0.60;;;6.10;76.80;;;;;;5094160;28;20055;-75
2021/03/27 06:21:47;;;;;;;0.80;0.43;;;6.10;77.20;;;;;;5076171;28;20530;-75
2021/03/27 06:24:37;;;;;;;3.58;0.77;;;6.00;76.40;;;;;;5076272;28;20066;-75
2021/03/27 06:27:34;;;;;;;5.32;0.73;;;6.00;76.40;;;;;;5075823;28;20097;-74
2021/03/27 06:30:18;;;;;;;4.70;2.03;;;5.90;77.00;;;;;;5075539;28;20066;-74
2021/03/27 06:32:52;;;;;;;1.20;0.55;;;5.90;77.60;;;;;;5093938;28;20032;-75
2021/03/27 06:35:37;;;;;;;0.50;0.38;;;5.90;76.90;;;;;;5075701;28;20028;-75
2021/03/27 06:38:11;;;;;;;4.45;0.60;;;5.80;76.50;;;;;;5076078;28;20107;-76
2021/03/27 06:41:06;;;;;;;3.05;0.55;;;5.80;76.60;;;;;;5094110;28;20107;-75
2021/03/27 06:44:20;;;;;;;1.85;0.60;;;5.70;76.40;;;;;;5075402;28;20012;-74
2021/03/27 06:47:10;;;;;;;2.97;0.43;;;5.60;75.60;;;;;;5066730;28;20125;-75
2021/03/27 06:50:02;;;;;;;1.42;0.40;;;5.60;75.50;;;;;;5075248;28;20020;-76
2021/03/27 06:52:44;;;;;;;1.73;0.45;;;5.60;75.20;;;;;;5075161;28;20119;-75
2021/03/27 06:55:31;;;;;;;3.63;0.43;;;5.60;75.20;;;;;;5075570;28;20020;-76
2021/03/27 06:58:06;;;;;;;2.28;0.80;;;5.70;75.00;;;;;;5075066;28;20120;-76
2021/03/27 07:00:48;;;;;;;2.03;0.73;;;5.80;74.30;;;;;;5075051;28;20123;-77
2021/03/27 07:03:54;;;;;;;3.85;1.00;;;5.80;73.40;;;;;;5092985;28;20107;-76
2021/03/27 07:06:31;;;;;;;3.60;1.13;;;5.90;73.80;;;;;;5092952;28;20063;-75
2021/03/27 07:09:34;;;;;;;6.00;0.80;;;6.00;74.50;;;;;;5075027;28;20122;-78
2021/03/27 07:12:25;;;;;;;2.50;0.65;;;6.00;74.40;;;;;;5074955;28;20052;-77
2021/03/27 07:15:21;;;;;;;4.00;0.65;;;6.20;74.70;;;;;;5075215;28;20119;-75
2021/03/27 07:18:24;;;;;;;3.80;0.93;;;6.40;73.20;;;;;;5076009;28;20032;-74
2021/03/27 07:21:05;;;;;;;3.80;1.38;;;6.50;72.40;;;;;;5092913;28;20032;-75
2021/03/27 07:23:36;;;;;;;2.08;0.90;;;6.50;73.40;;;;;;5092975;28;20016;-76
2021/03/27 07:26:29;;;;;;;6.10;0.90;;;6.60;73.30;;;;;;5074506;28;20113;-76
2021/03/27 07:28:58;;;;;;;2.35;0.88;;;6.70;72.40;;;;;;5074975;28;20021;-75
2021/03/27 07:31:45;;;;;;;5.53;0.90;;;6.70;70.40;;;;;;5092975;28;20031;-76
2021/03/27 07:34:49;;;;;;;3.83;1.02;;;6.70;71.50;;;;;;5074759;28;20028;-75
2021/03/27 07:37:21;;;;;;;1.83;1.00;;;6.90;70.40;;;;;;5093250;28;20380;-74
2021/03/27 07:40:13;;;;;;;3.75;0.63;;;7.00;67.60;;;;;;5074914;28;20112;-74
2021/03/27 07:42:39;;;;;;;3.40;1.08;;;6.90;66.70;;;;;;5075267;28;20468;-75
2021/03/27 07:45:42;;;;;;;2.28;0.70;;;7.00;64.40;;;;;;5093138;28;20024;-75
2021/03/27 07:48:27;;;;;;;5.38;0.90;;;7.00;65.30;;;;;;5093078;28;20074;-74
2021/03/27 07:51:12;;;;;;;2.80;0.60;;;7.20;65.30;;;;;;5074918;28;20020;-74
2021/03/27 07:53:41;;;;;;;6.75;1.38;;;7.10;65.90;;;;;;5074831;28;20047;-75
2021/03/27 07:56:34;;;;;;;7.97;0.80;;;7.10;66.30;;;;;;5075261;28;20035;-76
2021/03/27 07:59:52;;;;;;;4.43;0.73;;;7.00;64.20;;;;;;5092766;28;20107;-79
2021/03/27 08:02:42;;;;;;;5.72;1.02;;;7.20;63.30;;;;;;5034029;28;20635;-77
2021/03/27 08:05:34;;;;;;;4.20;1.17;;;7.10;62.10;;;;;;5033994;28;20033;-80
2021/03/27 08:08:36;;;;;;;5.00;0.65;;;7.10;63.10;;;;;;5070935;28;20032;-81
2021/03/27 08:11:22;;;;;;;2.75;0.52;;;7.30;63.20;;;;;;5074789;28;20024;-79
2021/03/27 08:14:12;;;;;;;3.80;1.77;;;7.50;62.50;;;;;;5092959;28;20016;-80
2021/03/27 08:17:05;;;;;;;3.55;0.50;;;7.60;62.40;;;;;;5092711;28;20032;-80
2021/03/27 08:19:46;;;;;;;3.15;0.65;;;7.50;63.00;;;;;;5078496;28;20036;-79
2021/03/27 08:22:48;;;;;;;6.05;0.75;;;7.50;62.90;;;;;;5078754;28;20027;-77
2021/03/27 08:25:28;;;;;;;4.07;0.98;;;7.60;64.20;;;;;;5084018;28;20034;-80
2021/03/27 08:28:18;;;;;;;8.00;1.08;;;7.60;63.10;;;;;;5079270;28;20469;-78
2021/03/27 08:31:08;;;;;;;6.53;0.93;;;7.50;63.40;;;;;;5096387;28;20039;-77
2021/03/27 08:33:52;;;;;;;5.53;0.80;;;7.70;64.00;;;;;;5078101;28;20024;-76
2021/03/27 08:36:33;;;;;;;2.10;0.50;;;7.70;63.50;;;;;;5078447;28;20053;-79
2021/03/27 08:39:36;;;;;;;26.02;2.97;;;7.90;62.10;;;;;;5079925;28;20031;-79
2021/03/27 08:42:10;;;;;;;7.32;1.13;;;8.70;69.30;;;;;;5091815;28;20028;-79
2021/03/27 08:44:59;;;;;;;6.65;1.13;;;9.20;64.50;;;;;;5082767;28;20031;-79
2021/03/27 08:47:43;;;;;;;4.55;0.52;;;9.50;58.20;;;;;;5077724;28;20392;-79
2021/03/27 08:50:42;;;;;;;1.83;0.40;;;9.60;55.80;;;;;;5096176;28;20111;-79
2021/03/27 08:53:33;;;;;;;1.48;0.50;;;9.40;54.70;;;;;;5078122;28;20023;-79
2021/03/27 08:56:20;;;;;;;1.80;0.45;;;9.00;57.10;;;;;;5081887;28;20032;-80
2021/03/27 08:59:23;;;;;;;2.95;0.60;;;8.70;60.30;;;;;;5076891;28;20550;-79
2021/03/27 09:01:51;;;;;;;0.77;0.30;;;8.40;61.90;;;;;;5077657;28;20031;-80
2021/03/27 09:04:33;;;;;;;2.88;0.73;;;8.50;63.40;;;;;;5077595;28;20024;-80
2021/03/27 09:07:29;;;;;;;2.75;0.73;;;8.90;62.40;;;;;;5077477;28;20100;-80
2021/03/27 09:10:13;;;;;;;0.82;0.43;;;9.20;60.50;;;;;;5077763;28;20062;-80
2021/03/27 09:13:10;;;;;;;1.55;0.77;;;9.20;60.40;;;;;;5095599;28;20079;-80
2021/03/27 09:15:55;;;;;;;;;;;9.40;59.00;;;;;;5096132;28;20440;-79
2021/03/27 09:18:39;;;;;;;5.18;0.80;;;9.60;59.10;;;;;;5077251;28;20364;-80
2021/03/27 09:21:23;;;;;;;4.90;0.82;;;9.90;57.30;;;;;;5077246;28;20051;-79
2021/03/27 09:24:21;;;;;;;5.15;1.02;;;9.80;56.20;;;;;;5077182;28;20024;-80
2021/03/27 09:27:07;;;;;;;1.70;0.60;;;9.90;54.90;;;;;;5061363;28;20040;-79
2021/03/27 09:29:58;;;;;;;2.88;1.00;;;9.80;53.80;;;;;;5077187;28;20028;-80
2021/03/27 09:32:53;;;;;;;3.35;0.95;;;9.40;53.90;;;;;;5077751;28;20422;-80
2021/03/27 09:35:51;;;;;;;2.70;0.95;;;9.50;53.70;;;;;;5076859;28;20024;-80
2021/03/27 09:38:26;;;;;;;8.57;3.40;;;9.60;52.90;;;;;;5076858;28;20472;-79
2021/03/27 09:41:06;;;;;;;9.77;1.65;;;9.30;54.10;;;;;;5076958;28;20032;-78
2021/03/27 09:44:08;;;;;;;7.30;1.25;;;9.10;53.70;;;;;;5094796;28;20020;-78
2021/03/27 09:46:47;;;;;;;2.13;0.90;;;9.00;53.70;;;;;;5076449;28;20488;-78
2021/03/27 09:49:37;;;;;;;5.25;1.13;;;8.80;52.90;;;;;;5076625;28;20119;-79
2021/03/27 09:52:34;;;;;;;2.00;0.98;;;9.20;51.70;;;;;;5076666;28;20046;-79
2021/03/27 09:55:09;;;;;;;3.92;1.30;;;9.10;50.70;;;;;;5095077;28;20093;-79
2021/03/27 09:57:49;;;;;;;6.10;0.85;;;9.30;51.80;;;;;;5068728;28;20141;-79
2021/03/27 10:00:20;;;;;;;2.17;1.15;;;9.30;49.30;;;;;;5066695;28;20029;-78
2021/03/27 10:03:16;;;;;;;2.08;0.93;;;9.00;46.00;;;;;;5068014;28;20422;-78
2021/03/27 10:06:14;;;;;;;4.90;0.55;;;9.00;45.90;;;;;;5067492;28;20119;-77
2021/03/27 10:08:48;;;;;;;2.70;0.77;;;9.10;45.10;;;;;;5067354;28;20024;-77
2021/03/27 10:11:19;;;;;;;3.38;0.82;;;9.50;45.00;;;;;;5063241;28;20128;-78
2021/03/27 10:13:50;;;;;;;3.50;0.80;;;9.40;44.50;;;;;;5058579;28;20025;-78
2021/03/27 10:16:25;;;;;;;3.28;1.08;;;9.30;45.20;;;;;;5057065;28;20028;-79
2021/03/27 10:19:14;;;;;;;4.00;0.73;;;9.50;46.00;;;;;;5060555;28;20054;-79
2021/03/27 10:21:58;;;;;;;4.38;0.70;;;9.40;42.80;;;;;;5056388;28;20080;-78
2021/03/27 10:24:39;;;;;;;1.50;0.50;;;9.60;42.20;;;;;;5074466;28;20477;-77
2021/03/27 10:27:14;;;;;;;2.78;0.70;;;9.70;41.00;;;;;;5055704;28;20273;-76
2021/03/27 10:29:54;;;;;;;2.17;0.33;;;9.60;39.00;;;;;;5073905;28;20519;-78
2021/03/27 10:32:32;;;;;;;4.45;0.70;;;9.40;39.20;;;;;;5073588;28;20024;-78
2021/03/27 10:35:21;;;;;;;5.75;0.50;;;9.30;39.60;;;;;;5055777;28;20029;-77
2021/03/27 10:38:05;;;;;;;3.30;0.60;;;9.40;40.40;;;;;;5055477;28;20028;-77
2021/03/27 10:40:49;;;;;;;2.72;0.95;;;9.40;39.50;;;;;;5069866;28;20094;-78
2021/03/27 10:43:51;;;;;;;6.13;0.60;;;9.40;39.10;;;;;;5075802;28;20032;-77
2021/03/27 10:46:31;;;;;;;3.15;0.60;;;9.30;38.80;;;;;;5058311;28;20028;-77
2021/03/27 10:49:15;;;;;;;2.55;0.60;;;9.20;38.30;;;;;;5060434;28;20052;-76
2021/03/27 10:52:20;;;;;;;0.90;0.50;;;9.10;39.00;;;;;;5076974;28;20100;-78
2021/03/27 10:54:57;;;;;;;2.60;0.60;;;9.40;39.50;;;;;;5071683;28;20021;-75
2021/03/27 10:57:38;;;;;;;3.53;0.60;;;9.60;39.20;;;;;;5071372;28;20028;-77
2021/03/27 11:01:01;;;;;;;2.22;0.82;;;9.70;39.40;;;;;;5072880;28;20029;-79
2021/03/27 11:03:38;;;;;;;2.33;0.80;;;9.90;38.90;;;;;;5014406;28;20025;-76
2021/03/27 11:06:21;;;;;;;1.13;0.47;;;9.70;38.00;;;;;;5030933;28;20026;-75
2021/03/27 11:09:30;;;;;;;3.03;0.77;;;9.50;37.60;;;;;;5051811;28;20099;-75
2021/03/27 11:12:04;;;;;;;4.68;0.95;;;9.60;37.80;;;;;;5073129;28;20024;-76
2021/03/27 11:14:49;;;;;;;4.40;0.93;;;10.20;37.60;;;;;;5071703;28;20491;-76
2021/03/27 11:17:33;;;;;;;3.92;1.17;;;10.20;36.80;;;;;;5071416;28;20033;-77
2021/03/27 11:20:36;;;;;;;2.60;0.68;;;10.10;36.70;;;;;;5071340;28;20132;-74
2021/03/27 11:23:24;;;;;;;2.63;0.68;;;9.50;36.80;;;;;;5071865;28;20032;-76
2021/03/27 11:26:08;;;;;;;1.90;0.47;;;9.80;37.50;;;;;;5071540;28;20024;-76
2021/03/27 11:28:45;;;;;;;1.48;0.50;;;9.80;36.60;;;;;;5070979;28;20048;-76
2021/03/27 11:31:30;;;;;;;4.32;0.73;;;9.90;36.70;;;;;;5071405;28;20100;-76
2021/03/27 11:34:01;;;;;;;1.65;0.50;;;9.80;36.10;;;;;;5071207;28;20431;-76
2021/03/27 11:37:03;;;;;;;3.70;0.70;;;9.90;36.10;;;;;;5071384;28;20028;-76
2021/03/27 11:39:38;;;;;;;1.90;0.80;;;10.10;36.00;;;;;;5071057;28;20024;-76
2021/03/27 11:42:10;;;;;;;1.50;0.55;;;9.50;36.10;;;;;;5070714;28;20034;-76
2021/03/27 11:44:45;;;;;;;1.52;0.45;;;9.50;36.60;;;;;;5070793;28;20525;-75
2021/03/27 11:47:33;;;;;;;3.97;0.50;;;9.40;37.30;;;;;;5070251;28;20039;-76
2021/03/27 11:49:59;;;;;;;3.47;0.75;;;9.20;37.70;;;;;;5070697;28;20029;-76
2021/03/27 11:52:46;;;;;;;2.13;0.60;;;9.30;37.90;;;;;;5073662;28;20423;-75
2021/03/27 11:55:21;;;;;;;1.02;0.50;;;9.40;38.10;;;;;;5074625;28;20399;-75
2021/03/27 11:58:03;;;;;;;2.63;0.68;;;9.80;37.60;;;;;;5075004;28;20104;-75
2021/03/27 12:01:03;;;;;;;3.28;0.60;;;9.90;37.30;;;;;;5076070;28;20127;-74
2021/03/27 12:03:51;;;;;;;1.13;0.70;;;10.10;37.80;;;;;;5075945;28;20488;-75
2021/03/27 12:06:55;;;;;;;2.92;0.88;;;10.00;37.70;;;;;;5075123;28;20021;-76
2021/03/27 12:09:40;;;;;;;1.83;0.77;;;10.20;36.70;;;;;;5074946;28;20053;-76
2021/03/27 12:12:25;;;;;;;3.35;2.20;;;10.10;37.00;;;;;;5074560;28;20113;-76
2021/03/27 12:14:57;;;;;;;4.75;1.45;;;10.50;37.40;;;;;;5074986;28;20020;-76
2021/03/27 12:17:50;;;;;;;3.60;1.42;;;10.90;37.40;;;;;;5078539;28;20024;-75
2021/03/27 12:20:34;;;;;;;3.38;1.13;;;11.10;36.60;;;;;;5074168;28;20039;-75
2021/03/27 12:23:20;;;;;;;1.92;0.73;;;10.90;36.30;;;;;;5074849;28;20017;-76
2021/03/27 12:26:13;;;;;;;3.55;0.60;;;10.60;35.10;;;;;;5088757;28;20062;-76
2021/03/27 12:28:45;;;;;;;4.18;0.60;;;10.20;35.10;;;;;;5084036;28;20135;-76
2021/03/27 12:31:25;;;;;;;2.13;0.55;;;9.60;35.50;;;;;;5075989;28;20025;-74
2021/03/27 12:34:29;;;;;;;1.42;0.47;;;9.40;35.90;;;;;;5076156;28;20040;-76
2021/03/27 12:37:11;;;;;;;3.90;0.80;;;9.30;36.70;;;;;;5074391;28;20021;-77
2021/03/27 12:40:15;;;;;;;3.55;0.90;;;9.10;37.20;;;;;;5075675;28;20037;-76
2021/03/27 12:42:53;;;;;;;10.60;1.30;;;9.20;37.80;;;;;;5075504;28;20542;-76
2021/03/27 12:45:25;;;;;;;4.05;1.33;;;9.20;37.80;;;;;;5075505;28;20468;-77
2021/03/27 12:48:37;;;;;;;2.40;0.63;;;9.60;37.30;;;;;;5075254;28;20028;-76
2021/03/27 12:51:37;;;;;;;1.30;0.50;;;10.00;36.30;;;;;;5036443;28;20037;-76
2021/03/27 12:54:28;;;;;;;5.47;0.90;;;10.20;36.10;;;;;;5036508;28;20025;-76
2021/03/27 12:57:08;;;;;;;2.10;0.80;;;10.60;36.20;;;;;;5036208;28;20025;-76
2021/03/27 13:00:28;;;;;;;3.47;0.95;;;10.90;35.70;;;;;;5035853;28;20378;-75
2021/03/27 13:03:31;;;;;;;4.25;0.80;;;10.90;34.70;;;;;;5035211;28;20079;-75
2021/03/27 13:06:16;;;;;;;4.22;0.77;;;10.80;34.00;;;;;;5035801;28;20090;-75
2021/03/27 13:09:05;;;;;;;3.60;1.20;;;11.00;33.70;;;;;;5052807;28;20517;-75
2021/03/27 13:11:45;;;;;;;2.85;0.68;;;11.20;33.40;;;;;;5035424;28;20029;-76
2021/03/27 13:14:48;;;;;;;2.28;0.60;;;11.00;32.60;;;;;;5036019;28;20468;-76
2021/03/27 13:17:20;;;;;;;2.85;0.82;;;11.30;32.20;;;;;;5035980;28;20032;-75
2021/03/27 13:19:56;;;;;;;2.58;0.80;;;11.10;32.20;;;;;;5036097;28;20037;-76
2021/03/27 13:22:28;;;;;;;4.05;0.98;;;10.80;32.20;;;;;;5057943;28;20087;-76
2021/03/27 13:25:06;;;;;;;4.47;0.82;;;10.60;32.90;;;;;;5074732;28;20021;-75
2021/03/27 13:27:34;;;;;;;2.40;0.63;;;10.40;32.90;;;;;;5073267;28;20048;-74
2021/03/27 13:30:21;;;;;;;3.83;0.85;;;10.30;34.00;;;;;;5074677;28;20031;-75
2021/03/27 13:33:05;;;;;;;3.65;0.85;;;10.40;35.10;;;;;;5073264;28;20149;-75
2021/03/27 13:35:50;;;;;;;5.40;0.77;;;10.60;35.40;;;;;;5073058;28;20391;-76
2021/03/27 13:38:26;;;;;;;5.72;0.98;;;11.10;37.70;;;;;;5072988;28;20508;-76
2021/03/27 13:40:54;;;;;;;3.25;1.10;;;11.10;36.00;;;;;;5073057;28;20036;-75
2021/03/27 13:43:35;;;;;;;2.17;0.80;;;10.80;35.20;;;;;;5072508;28;20025;-75
2021/03/27 13:46:16;;;;;;;2.45;0.80;;;10.90;35.10;;;;;;5073128;28;20094;-75
2021/03/27 13:49:08;;;;;;;6.35;1.20;;;11.00;34.90;;;;;;5072802;28;20465;-75
2021/03/27 13:51:53;;;;;;;2.67;0.70;;;10.80;34.30;;;;;;5073911;28;20115;-77
2021/03/27 13:54:43;;;;;;;2.83;0.90;;;10.80;34.20;;;;;;5072968;28;20487;-76
2021/03/27 13:57:19;;;;;;;4.45;0.77;;;10.40;34.10;;;;;;5072944;28;20066;-76
2021/03/27 13:59:50;;;;;;;4.30;0.73;;;10.30;34.30;;;;;;5072544;28;20115;-76
2021/03/27 14:02:33;;;;;;;7.55;2.85;;;10.40;34.20;;;;;;5072687;28;20055;-77
2021/03/27 14:05:11;;;;;;;5.85;1.30;;;10.50;34.10;;;;;;5072692;28;20469;-76
2021/03/27 14:07:53;;;;;;;3.38;0.98;;;10.30;34.00;;;;;;5073989;28;20032;-75
2021/03/27 14:10:31;;;;;;;4.35;2.00;;;10.30;34.20;;;;;;5072705;28;20029;-76
2021/03/27 14:13:02;;;;;;;3.65;0.70;;;10.20;34.60;;;;;;5072593;28;20169;-75
2021/03/27 14:15:39;;;;;;;2.72;0.75;;;10.10;34.70;;;;;;5072682;28;20020;-77
2021/03/27 14:18:35;;;;;;;7.32;1.20;;;10.10;35.00;;;;;;5073068;28;20480;-77
2021/03/27 14:21:26;;;;;;;3.97;1.05;;;9.70;35.40;;;;;;5073488;28;20048;-77
2021/03/27 14:24:10;;;;;;;2.88;0.90;;;9.70;35.80;;;;;;5049242;28;20025;-77
2021/03/27 14:27:01;;;;;;;5.13;1.13;;;9.70;36.20;;;;;;5072286;28;20037;-76
2021/03/27 14:29:50;;;;;;;2.33;0.70;;;9.90;36.80;;;;;;5072039;28;20147;-77